Time;durP1;ratioP1;P1;durP2;ratioP2;P2;SDS_P1;SDS_P2;PMS_P1;PMS_P2;Temp;Humidity;BMP_temperature;BMP_pressure;BME280_temperature;BME280_humidity;BME280_pressure;Samples;Min_cycle;Max_cycle;Signal;HPM_P1;HPM_P2
2024/02/02 00:01:14;;;;;;;15.83;7.17;;;5.00;88.30;;;;;;5028544;28;20487;-70
2024/02/02 00:03:40;;;;;;;13.83;7.87;;;5.00;88.30;;;;;;5036025;28;20272;-71
2024/02/02 00:06:05;;;;;;;14.97;8.70;;;5.20;88.30;;;;;;5035377;28;20196;-70
2024/02/02 00:08:31;;;;;;;18.07;8.80;;;5.20;87.70;;;;;;5033805;28;20208;-71
2024/02/02 00:10:57;;;;;;;16.00;8.10;;;5.20;86.80;;;;;;5030711;28;20216;-70
2024/02/02 00:13:23;;;;;;;17.70;8.10;;;5.10;86.80;;;;;;5027207;28;20212;-70
2024/02/02 00:15:49;;;;;;;17.90;9.30;;;5.10;86.80;;;;;;5033647;28;20173;-69
2024/02/02 00:18:14;;;;;;;12.90;7.33;;;5.10;86.90;;;;;;5034037;28;20438;-71
2024/02/02 00:20:40;;;;;;;11.20;6.47;;;5.10;86.80;;;;;;5030064;28;20213;-71
2024/02/02 00:23:05;;;;;;;15.17;7.93;;;5.00;86.50;;;;;;5028623;28;20182;-69
2024/02/02 00:25:31;;;;;;;15.17;7.90;;;5.00;86.50;;;;;;5031441;28;20516;-72
2024/02/02 00:27:57;;;;;;;16.90;7.83;;;4.90;86.30;;;;;;5030473;28;20208;-71
2024/02/02 00:30:22;;;;;;;14.90;8.13;;;4.80;86.50;;;;;;5031264;28;20217;-70
2024/02/02 00:32:48;;;;;;;14.17;7.60;;;4.70;86.60;;;;;;5031451;28;20197;-70
2024/02/02 00:35:14;;;;;;;19.03;9.60;;;4.70;86.80;;;;;;5029962;28;20256;-71
2024/02/02 00:37:40;;;;;;;16.37;7.50;;;4.60;86.90;;;;;;5033488;28;20220;-70
2024/02/02 00:40:07;;;;;;;15.70;8.70;;;4.60;87.10;;;;;;5023678;28;20185;-70
2024/02/02 00:42:32;;;;;;;14.43;7.23;;;4.60;87.30;;;;;;5025158;28;20509;-70
2024/02/02 00:44:59;;;;;;;17.27;8.30;;;4.60;87.30;;;;;;5031147;28;20440;-71
2024/02/02 00:47:25;;;;;;;17.97;7.17;;;4.60;87.60;;;;;;5033546;28;20208;-70
2024/02/02 00:49:51;;;;;;;14.43;7.00;;;4.70;87.60;;;;;;5033912;28;20952;-71
2024/02/02 00:52:16;;;;;;;15.37;7.10;;;4.70;87.60;;;;;;5025795;28;20204;-71
2024/02/02 00:54:42;;;;;;;12.97;7.17;;;4.70;87.10;;;;;;5026395;28;20320;-71
2024/02/02 00:57:08;;;;;;;24.63;6.83;;;4.70;86.90;;;;;;5030308;28;20192;-69
2024/02/02 00:59:33;;;;;;;16.00;6.37;;;4.60;86.90;;;;;;5032492;28;20293;-70
2024/02/02 01:01:59;;;;;;;9.33;5.30;;;4.60;87.00;;;;;;5025878;28;20229;-70
2024/02/02 01:04:25;;;;;;;11.73;5.07;;;4.60;87.00;;;;;;5032473;28;20200;-71
2024/02/02 01:06:50;;;;;;;13.37;5.77;;;4.70;86.80;;;;;;5033478;28;20684;-72
2024/02/02 01:09:16;;;;;;;17.77;4.07;;;4.70;86.60;;;;;;5034383;28;20213;-71
2024/02/02 01:11:41;;;;;;;5.60;3.70;;;4.60;86.60;;;;;;5028239;28;20308;-71
2024/02/02 01:14:07;;;;;;;9.10;3.73;;;4.60;86.30;;;;;;5033659;28;20178;-70
2024/02/02 01:16:33;;;;;;;11.07;3.40;;;4.50;86.00;;;;;;5033179;28;20185;-71
2024/02/02 01:18:58;;;;;;;12.97;3.80;;;4.40;85.90;;;;;;5031716;28;20383;-71
2024/02/02 01:21:24;;;;;;;8.20;4.27;;;4.50;85.90;;;;;;5028009;28;20208;-71
2024/02/02 01:23:49;;;;;;;9.33;4.60;;;4.50;85.90;;;;;;5024495;28;20421;-70
2024/02/02 01:26:15;;;;;;;10.53;5.30;;;4.50;85.70;;;;;;5032606;28;20209;-70
2024/02/02 01:28:41;;;;;;;14.10;5.30;;;4.60;85.70;;;;;;5032089;28;20236;-69
2024/02/02 01:31:06;;;;;;;10.47;4.97;;;4.70;85.60;;;;;;5029506;28;20209;-71
2024/02/02 01:33:32;;;;;;;10.73;5.83;;;4.60;85.20;;;;;;5023292;28;20198;-70
2024/02/02 01:35:58;;;;;;;13.37;5.63;;;4.50;85.30;;;;;;5032045;28;20177;-69
2024/02/02 01:38:23;;;;;;;17.13;5.27;;;4.40;85.50;;;;;;5034503;28;20228;-70
2024/02/02 01:40:49;;;;;;;13.70;4.97;;;4.40;85.70;;;;;;5030703;28;20470;-69
2024/02/02 01:43:15;;;;;;;9.77;4.23;;;4.40;85.60;;;;;;5027328;28;20182;-69
2024/02/02 01:45:40;;;;;;;9.93;4.47;;;4.40;85.30;;;;;;5032653;28;20239;-70
2024/02/02 01:48:07;;;;;;;11.87;5.03;;;4.40;84.90;;;;;;5035976;28;20713;-70
2024/02/02 01:50:33;;;;;;;8.83;4.80;;;4.40;84.70;;;;;;5031651;28;20205;-70
2024/02/02 01:53:00;;;;;;;6.47;4.53;;;4.30;84.60;;;;;;5017766;28;20427;-71
2024/02/02 01:55:26;;;;;;;7.27;5.17;;;4.30;85.20;;;;;;5030428;28;20435;-70
2024/02/02 01:57:52;;;;;;;9.40;4.20;;;4.40;85.20;;;;;;5031649;28;20774;-70
2024/02/02 02:00:17;;;;;;;12.90;4.33;;;4.30;84.40;;;;;;5027407;28;20478;-70
2024/02/02 02:02:43;;;;;;;10.00;4.60;;;4.30;84.40;;;;;;5024858;28;20263;-72
2024/02/02 02:05:12;;;;;;;9.37;4.80;;;4.30;84.60;;;;;;5031624;28;20177;-72
2024/02/02 02:07:43;;;;;;;10.73;4.90;;;4.40;84.70;;;;;;5034349;28;20197;-70
2024/02/02 02:10:10;;;;;;;11.73;4.73;;;4.40;84.60;;;;;;5029267;28;20420;-70
2024/02/02 02:12:35;;;;;;;12.00;4.93;;;4.30;84.60;;;;;;5023759;28;20924;-71
2024/02/02 02:15:02;;;;;;;7.80;4.40;;;4.30;84.70;;;;;;5032738;28;20416;-71
2024/02/02 02:17:27;;;;;;;10.87;5.30;;;4.30;85.00;;;;;;5031532;28;20192;-70
2024/02/02 02:19:53;;;;;;;8.00;4.07;;;4.30;85.00;;;;;;5032681;28;20495;-71
2024/02/02 02:22:18;;;;;;;7.20;3.70;;;4.20;85.00;;;;;;5029506;28;20268;-71
2024/02/02 02:24:44;;;;;;;9.10;4.20;;;4.20;85.00;;;;;;5033017;28;20177;-70
2024/02/02 02:27:10;;;;;;;12.93;6.00;;;4.40;85.50;;;;;;5033222;28;20192;-70
2024/02/02 02:29:36;;;;;;;9.60;4.43;;;4.40;85.30;;;;;;5033314;28;20319;-71
2024/02/02 02:32:02;;;;;;;9.23;4.60;;;4.50;85.30;;;;;;5028655;28;20558;-71
2024/02/02 02:34:27;;;;;;;11.80;4.60;;;4.50;85.30;;;;;;5035967;28;20196;-69
2024/02/02 02:36:54;;;;;;;15.27;4.40;;;4.50;85.00;;;;;;5027257;28;20563;-69
2024/02/02 02:39:20;;;;;;;9.20;3.40;;;4.50;84.60;;;;;;5030684;28;20200;-70
2024/02/02 02:41:46;;;;;;;8.30;4.10;;;4.50;84.70;;;;;;5027302;28;20451;-71
2024/02/02 02:44:14;;;;;;;12.23;4.50;;;4.50;84.90;;;;;;5030397;28;20438;-71
2024/02/02 02:46:40;;;;;;;14.03;4.40;;;4.40;85.00;;;;;;5031820;28;20434;-69
2024/02/02 02:49:06;;;;;;;22.63;5.27;;;4.50;85.00;;;;;;5029738;28;20468;-71
2024/02/02 02:51:32;;;;;;;7.70;3.93;;;4.60;85.00;;;;;;5021247;28;20482;-70
2024/02/02 02:53:58;;;;;;;15.10;4.50;;;4.50;84.40;;;;;;5028831;28;20424;-70
2024/02/02 02:56:23;;;;;;;13.50;4.70;;;4.60;84.40;;;;;;5030605;28;20859;-69
2024/02/02 02:58:49;;;;;;;11.30;4.73;;;4.60;84.30;;;;;;5029181;28;20194;-70
2024/02/02 03:01:14;;;;;;;7.93;4.57;;;4.60;84.30;;;;;;5023418;28;20771;-70
2024/02/02 03:03:40;;;;;;;10.07;4.40;;;4.60;84.00;;;;;;5028169;28;20185;-70
2024/02/02 03:06:06;;;;;;;17.43;4.10;;;4.60;84.00;;;;;;5028301;28;20623;-70
2024/02/02 03:08:32;;;;;;;7.77;4.20;;;4.60;84.10;;;;;;5030047;28;20679;-70
2024/02/02 03:11:00;;;;;;;19.53;5.60;;;4.80;84.30;;;;;;5022575;28;20532;-70
2024/02/02 03:13:26;;;;;;;12.40;4.87;;;4.80;83.80;;;;;;5027627;28;20181;-70
2024/02/02 03:15:51;;;;;;;7.33;4.50;;;4.80;83.60;;;;;;5026370;28;20435;-71
2024/02/02 03:18:17;;;;;;;10.77;4.53;;;4.80;83.60;;;;;;5029712;28;20676;-70
2024/02/02 03:20:43;;;;;;;13.47;4.90;;;4.80;83.60;;;;;;5026788;28;20205;-70
2024/02/02 03:23:08;;;;;;;9.03;4.30;;;4.90;83.70;;;;;;5020432;28;20185;-70
2024/02/02 03:25:34;;;;;;;9.63;4.40;;;5.00;83.60;;;;;;5027222;28;20228;-70
2024/02/02 03:28:00;;;;;;;10.37;4.57;;;5.00;83.40;;;;;;5027403;28;20234;-70
2024/02/02 03:30:27;;;;;;;12.40;4.20;;;5.00;83.40;;;;;;5024437;28;20955;-71
2024/02/02 03:32:53;;;;;;;15.83;5.33;;;4.90;83.30;;;;;;5027519;28;20243;-70
2024/02/02 03:35:19;;;;;;;11.00;4.53;;;5.00;83.30;;;;;;5031537;28;20428;-70
2024/02/02 03:37:44;;;;;;;7.10;4.00;;;4.90;83.30;;;;;;5029608;28;20625;-71
2024/02/02 03:40:11;;;;;;;10.93;4.80;;;5.00;83.30;;;;;;5027335;28;20205;-73
2024/02/02 03:42:36;;;;;;;8.27;4.70;;;5.00;83.10;;;;;;5029444;28;20177;-72
2024/02/02 03:45:03;;;;;;;8.47;4.70;;;5.00;83.00;;;;;;5029169;28;20939;-72
2024/02/02 03:47:29;;;;;;;9.50;4.53;;;5.00;82.70;;;;;;5030425;28;20697;-70
2024/02/02 03:49:54;;;;;;;10.80;4.60;;;4.80;82.50;;;;;;5034592;28;21260;-70
2024/02/02 03:52:23;;;;;;;9.10;4.30;;;4.80;82.70;;;;;;5035044;28;20196;-70
2024/02/02 03:54:49;;;;;;;8.80;4.30;;;4.80;83.00;;;;;;5028627;28;20190;-71
2024/02/02 03:57:15;;;;;;;18.93;5.07;;;4.90;83.10;;;;;;5029809;28;20431;-70
2024/02/02 03:59:40;;;;;;;14.73;4.50;;;5.00;83.10;;;;;;5030791;28;20423;-72
2024/02/02 04:02:06;;;;;;;7.30;4.40;;;5.00;83.10;;;;;;5028543;28;20456;-70
2024/02/02 04:04:32;;;;;;;8.90;4.30;;;5.10;83.10;;;;;;5030463;28;20192;-70
2024/02/02 04:06:57;;;;;;;8.03;4.60;;;5.20;83.10;;;;;;5029454;28;20224;-72
2024/02/02 04:09:23;;;;;;;9.10;4.10;;;5.20;82.80;;;;;;5030515;28;20578;-71
2024/02/02 04:11:49;;;;;;;9.20;4.23;;;5.20;82.70;;;;;;5026539;28;20197;-71
2024/02/02 04:14:14;;;;;;;9.03;4.80;;;5.20;82.80;;;;;;5031834;28;20178;-70
2024/02/02 04:16:40;;;;;;;9.73;4.33;;;5.10;82.80;;;;;;5034016;28;20197;-70
2024/02/02 04:19:06;;;;;;;5.57;3.47;;;5.20;83.10;;;;;;5032023;28;20182;-70
2024/02/02 04:21:31;;;;;;;10.03;3.93;;;5.30;83.10;;;;;;5018289;28;20206;-69
2024/02/02 04:23:57;;;;;;;6.83;4.27;;;5.40;83.10;;;;;;5027132;28;20276;-70
2024/02/02 04:26:22;;;;;;;7.83;3.80;;;5.40;83.00;;;;;;5030480;28;20195;-68
2024/02/02 04:28:48;;;;;;;10.93;4.70;;;5.50;83.00;;;;;;5030518;28;20216;-70
2024/02/02 04:31:14;;;;;;;16.63;4.90;;;5.50;82.80;;;;;;5021847;28;20554;-70
2024/02/02 04:33:40;;;;;;;10.80;4.50;;;5.50;83.00;;;;;;5025598;28;20440;-70
2024/02/02 04:36:05;;;;;;;10.03;4.97;;;5.60;83.00;;;;;;5032386;28;20177;-70
2024/02/02 04:38:31;;;;;;;9.33;4.20;;;5.60;83.10;;;;;;5032202;28;20941;-70
2024/02/02 04:40:57;;;;;;;19.73;5.87;;;5.70;83.00;;;;;;5024989;28;20271;-69
2024/02/02 04:43:22;;;;;;;10.40;4.60;;;5.70;83.00;;;;;;5028007;28;20203;-69
2024/02/02 04:45:48;;;;;;;14.00;5.60;;;5.60;82.80;;;;;;5032416;28;20684;-69
2024/02/02 04:48:14;;;;;;;12.10;5.83;;;5.70;83.00;;;;;;5032248;28;20213;-70
2024/02/02 04:50:40;;;;;;;7.63;4.63;;;5.70;82.70;;;;;;5028009;28;20209;-70
2024/02/02 04:53:06;;;;;;;22.63;5.70;;;5.70;82.80;;;;;;5031916;28;20190;-70
2024/02/02 04:55:32;;;;;;;10.47;4.50;;;5.70;82.70;;;;;;5032671;28;20763;-70
2024/02/02 04:57:58;;;;;;;9.73;4.87;;;5.70;83.00;;;;;;5032436;28;20477;-69
2024/02/02 05:00:23;;;;;;;13.47;6.00;;;5.60;83.10;;;;;;5028683;28;20302;-70
2024/02/02 05:02:49;;;;;;;16.83;5.40;;;5.60;83.40;;;;;;5028943;28;20223;-71
2024/02/02 05:05:14;;;;;;;11.60;4.83;;;5.70;83.60;;;;;;5032742;28;20181;-69
2024/02/02 05:07:40;;;;;;;11.33;5.40;;;5.70;83.40;;;;;;5033190;28;20294;-69
2024/02/02 05:10:06;;;;;;;8.03;4.60;;;5.70;83.40;;;;;;5024730;28;20189;-69
2024/02/02 05:12:33;;;;;;;13.73;5.27;;;5.70;83.60;;;;;;5031654;28;20182;-71
2024/02/02 05:14:58;;;;;;;9.47;4.63;;;5.70;83.40;;;;;;5027044;28;20442;-68
2024/02/02 05:17:24;;;;;;;8.77;5.03;;;5.70;83.40;;;;;;5032118;28;20416;-69
2024/02/02 05:19:50;;;;;;;8.87;5.20;;;5.70;83.40;;;;;;5031264;28;20173;-71
2024/02/02 05:22:15;;;;;;;9.00;4.80;;;5.70;83.60;;;;;;5025049;28;20186;-69
2024/02/02 05:24:41;;;;;;;15.57;6.10;;;5.70;83.60;;;;;;5031677;28;20209;-70
2024/02/02 05:27:07;;;;;;;13.27;5.17;;;5.70;83.70;;;;;;5030233;28;20553;-71
2024/02/02 05:29:32;;;;;;;16.97;6.97;;;5.70;84.00;;;;;;5032389;28;20223;-71
2024/02/02 05:31:58;;;;;;;9.57;4.87;;;5.80;84.00;;;;;;5029003;28;20224;-69
2024/02/02 05:34:24;;;;;;;10.30;5.30;;;5.80;84.00;;;;;;5033394;28;20259;-70
2024/02/02 05:36:49;;;;;;;11.63;5.87;;;5.80;83.80;;;;;;5034971;28;20571;-70
2024/02/02 05:39:15;;;;;;;8.30;5.03;;;5.80;84.00;;;;;;5031656;28;20186;-70
2024/02/02 05:41:41;;;;;;;9.00;5.67;;;5.70;84.00;;;;;;5026524;28;20565;-71
2024/02/02 05:44:06;;;;;;;10.60;5.00;;;5.70;84.10;;;;;;5029480;28;20209;-72
2024/02/02 05:46:32;;;;;;;12.53;5.97;;;5.70;84.30;;;;;;5032669;28;20189;-70
2024/02/02 05:48:57;;;;;;;12.83;6.13;;;5.80;84.40;;;;;;5030240;28;20237;-72
2024/02/02 05:51:23;;;;;;;10.47;5.27;;;5.90;84.60;;;;;;5021665;28;20205;-72
2024/02/02 05:53:49;;;;;;;8.60;5.53;;;6.00;84.30;;;;;;5025326;28;20647;-71
2024/02/02 05:56:14;;;;;;;11.10;5.47;;;6.00;84.00;;;;;;5032634;28;20268;-70
2024/02/02 05:58:40;;;;;;;10.77;5.70;;;6.00;83.80;;;;;;5030236;28;20182;-70
2024/02/02 06:01:05;;;;;;;13.70;6.23;;;6.00;83.80;;;;;;5023493;28;20678;-70
2024/02/02 06:03:31;;;;;;;11.00;5.40;;;6.10;84.00;;;;;;5028262;28;20706;-70
2024/02/02 06:05:57;;;;;;;9.50;4.67;;;6.10;84.10;;;;;;5029268;28;20192;-70
2024/02/02 06:08:22;;;;;;;9.47;5.80;;;6.20;84.00;;;;;;5031246;28;20209;-70
2024/02/02 06:10:48;;;;;;;9.90;5.47;;;6.30;83.80;;;;;;5026177;28;20209;-70
2024/02/02 06:13:17;;;;;;;10.00;5.20;;;6.40;83.60;;;;;;5028833;28;20617;-70
2024/02/02 06:15:42;;;;;;;12.43;5.87;;;6.40;83.40;;;;;;5028514;28;20777;-70
2024/02/02 06:18:08;;;;;;;10.93;6.10;;;6.50;83.30;;;;;;5034245;28;20423;-71
2024/02/02 06:20:34;;;;;;;11.37;6.27;;;6.50;83.00;;;;;;5028106;28;20271;-70
2024/02/02 06:22:59;;;;;;;12.17;6.37;;;6.50;82.80;;;;;;5026014;28;20188;-69
2024/02/02 06:25:25;;;;;;;10.50;6.00;;;6.40;82.70;;;;;;5027618;28;20188;-69
2024/02/02 06:27:51;;;;;;;15.80;6.80;;;6.40;83.00;;;;;;5030176;28;20580;-70
2024/02/02 06:30:16;;;;;;;13.23;6.57;;;6.50;83.10;;;;;;5027778;28;20210;-70
2024/02/02 06:32:46;;;;;;;10.40;5.90;;;6.50;82.80;;;;;;5028026;28;20633;-70
2024/02/02 06:35:12;;;;;;;12.23;6.87;;;6.30;82.80;;;;;;5025548;28;20181;-70
2024/02/02 06:37:37;;;;;;;11.40;5.67;;;6.30;83.30;;;;;;5031992;28;20412;-72
2024/02/02 06:40:04;;;;;;;13.13;6.50;;;6.30;83.60;;;;;;5029112;28;20481;-72
2024/02/02 06:42:29;;;;;;;8.33;5.53;;;6.40;83.80;;;;;;5026176;28;20177;-72
2024/02/02 06:44:57;;;;;;;12.27;6.10;;;6.30;83.70;;;;;;5026016;28;20982;-72
2024/02/02 06:47:23;;;;;;;12.17;6.53;;;6.30;83.80;;;;;;5030517;28;20703;-70
2024/02/02 06:49:49;;;;;;;12.77;6.70;;;6.40;83.80;;;;;;5030316;28;20824;-69
2024/02/02 06:52:14;;;;;;;13.67;6.37;;;6.50;83.60;;;;;;5020461;28;20506;-69
2024/02/02 06:54:43;;;;;;;11.03;6.13;;;6.50;83.70;;;;;;5027420;28;20177;-71
2024/02/02 06:57:09;;;;;;;8.30;5.70;;;6.50;83.60;;;;;;5027008;28;20186;-70
2024/02/02 06:59:36;;;;;;;11.33;6.80;;;6.40;83.60;;;;;;5029591;28;20928;-71
2024/02/02 07:02:17;;;;;;;11.37;6.57;;;6.30;84.10;;;;;;5017032;28;20562;-70
2024/02/02 07:04:42;;;;;;;19.07;7.90;;;6.20;84.40;;;;;;5025042;28;20431;-70
2024/02/02 07:07:08;;;;;;;20.60;8.17;;;6.20;84.60;;;;;;5029997;28;20913;-70
2024/02/02 07:09:34;;;;;;;18.80;7.30;;;6.20;84.90;;;;;;5030028;28;20575;-71
2024/02/02 07:12:10;;;;;;;15.13;8.60;;;6.20;85.00;;;;;;5017665;28;20209;-71
2024/02/02 07:14:50;;;;;;;13.27;7.13;;;6.10;85.30;;;;;;5025197;28;20427;-71
2024/02/02 07:17:18;;;;;;;21.90;10.07;;;6.20;85.30;;;;;;5025334;28;20428;-71
2024/02/02 07:19:44;;;;;;;13.77;7.23;;;6.30;85.50;;;;;;5029609;28;20424;-71
2024/02/02 07:22:41;;;;;;;13.47;7.30;;;6.30;85.50;;;;;;5021131;28;20826;-69
2024/02/02 07:25:23;;;;;;;14.93;7.50;;;6.30;85.30;;;;;;5029400;28;20188;-70
2024/02/02 07:28:01;;;;;;;19.73;10.00;;;6.40;85.50;;;;;;5026553;28;20775;-68
2024/02/02 07:30:55;;;;;;;16.77;8.50;;;6.30;85.20;;;;;;5020506;28;20853;-69
2024/02/02 07:33:44;;;;;;;20.17;9.83;;;6.30;85.20;;;;;;5017488;28;20487;-71
2024/02/02 07:36:20;;;;;;;13.93;7.50;;;6.40;85.20;;;;;;5025582;28;20446;-71
2024/02/02 07:38:55;;;;;;;15.80;7.90;;;6.40;85.20;;;;;;5029391;28;20420;-71
2024/02/02 07:41:25;;;;;;;21.97;8.43;;;6.60;85.30;;;;;;5023524;28;20467;-70
2024/02/02 07:43:55;;;;;;;13.13;7.80;;;6.70;84.70;;;;;;5024164;28;20419;-71
2024/02/02 07:46:22;;;;;;;15.80;7.90;;;6.80;84.40;;;;;;5030667;28;20424;-71
2024/02/02 07:48:49;;;;;;;18.40;8.23;;;6.80;84.40;;;;;;5030350;28;20464;-72
2024/02/02 07:51:17;;;;;;;14.87;7.70;;;6.80;84.60;;;;;;5026857;28;20533;-71
2024/02/02 07:53:48;;;;;;;19.33;9.20;;;6.80;84.60;;;;;;5024380;28;20527;-71
2024/02/02 07:56:14;;;;;;;16.83;8.13;;;6.80;84.70;;;;;;5026745;28;20467;-70
2024/02/02 07:58:40;;;;;;;19.03;8.30;;;6.80;84.60;;;;;;5031023;28;20541;-71
2024/02/02 08:01:07;;;;;;;17.67;8.50;;;6.80;84.60;;;;;;5022897;28;20546;-71
2024/02/02 08:03:34;;;;;;;15.97;8.30;;;6.90;84.70;;;;;;5021526;28;20280;-72
2024/02/02 08:05:59;;;;;;;13.73;7.80;;;7.10;84.40;;;;;;5030751;28;20442;-70
2024/02/02 08:08:25;;;;;;;17.87;8.60;;;7.10;84.10;;;;;;5030417;28;20499;-71
2024/02/02 08:10:51;;;;;;;14.63;6.67;;;7.20;84.00;;;;;;5021793;28;20252;-71
2024/02/02 08:13:18;;;;;;;13.87;9.03;;;7.40;83.60;;;;;;5022785;28;20268;-71
2024/02/02 08:15:44;;;;;;;15.40;8.70;;;7.40;83.10;;;;;;5038519;28;20182;-72
2024/02/02 08:18:10;;;;;;;17.53;8.20;;;7.40;83.10;;;;;;5039869;28;20416;-71
2024/02/02 08:20:36;;;;;;;13.40;7.47;;;7.30;83.00;;;;;;5031854;28;20344;-71
2024/02/02 08:23:03;;;;;;;14.23;7.90;;;7.40;83.10;;;;;;5031726;28;20448;-71
2024/02/02 08:25:29;;;;;;;15.87;7.73;;;7.50;82.50;;;;;;5033676;28;20447;-70
2024/02/02 08:27:55;;;;;;;13.57;7.27;;;7.50;82.40;;;;;;5036821;28;20437;-71
2024/02/02 08:30:23;;;;;;;15.90;7.40;;;7.50;82.50;;;;;;5035365;28;20232;-72
2024/02/02 08:32:51;;;;;;;17.67;7.70;;;7.50;82.50;;;;;;5029742;28;20507;-71
2024/02/02 08:35:21;;;;;;;22.90;8.17;;;7.60;82.10;;;;;;5028099;28;20440;-71
2024/02/02 08:37:58;;;;;;;13.63;7.30;;;7.50;82.10;;;;;;5033288;28;20432;-70
2024/02/02 08:40:43;;;;;;;16.57;7.90;;;7.50;82.20;;;;;;5024080;28;20882;-70
2024/02/02 08:43:17;;;;;;;16.20;7.60;;;7.50;82.70;;;;;;5027394;28;20466;-71
2024/02/02 08:45:42;;;;;;;16.60;8.10;;;7.50;82.50;;;;;;5033414;28;20432;-71
2024/02/02 08:48:24;;;;;;;15.17;7.67;;;7.60;82.70;;;;;;5033348;28;20475;-72
2024/02/02 08:50:57;;;;;;;17.20;8.27;;;7.60;82.50;;;;;;5031296;28;20224;-70
2024/02/02 08:53:24;;;;;;;15.37;7.57;;;7.70;82.70;;;;;;5027573;28;20428;-70
2024/02/02 08:55:50;;;;;;;13.37;7.50;;;7.80;82.20;;;;;;5032253;28;20416;-71
2024/02/02 08:58:23;;;;;;;9.50;6.10;;;7.80;82.20;;;;;;5032842;28;20994;-69
2024/02/02 09:00:50;;;;;;;17.50;6.67;;;7.80;81.90;;;;;;5028786;28;20474;-70
2024/02/02 09:03:23;;;;;;;14.73;8.13;;;7.80;82.10;;;;;;5028484;28;20432;-69
2024/02/02 09:05:57;;;;;;;13.07;6.33;;;7.80;82.10;;;;;;5032630;28;20416;-69
2024/02/02 09:08:25;;;;;;;12.33;6.40;;;7.90;82.20;;;;;;5029293;28;20467;-69
2024/02/02 09:11:21;;;;;;;17.13;7.27;;;7.90;81.70;;;;;;5021402;28;20847;-70
2024/02/02 09:13:47;;;;;;;14.37;7.00;;;7.90;81.80;;;;;;5025165;28;20975;-71
2024/02/02 09:16:15;;;;;;;14.83;6.97;;;7.90;81.90;;;;;;5032885;28;20428;-71
2024/02/02 09:18:54;;;;;;;16.10;7.23;;;8.00;81.50;;;;;;5030301;28;20785;-72
2024/02/02 09:21:32;;;;;;;12.47;7.07;;;8.00;81.40;;;;;;5024107;28;20587;-70
2024/02/02 09:23:58;;;;;;;13.67;6.90;;;8.00;81.40;;;;;;5021977;28;20431;-70
2024/02/02 09:26:44;;;;;;;9.77;6.40;;;8.10;81.40;;;;;;5030638;28;20405;-70
2024/02/02 09:29:10;;;;;;;15.33;7.77;;;8.20;80.90;;;;;;5031049;28;20291;-73
2024/02/02 09:31:37;;;;;;;12.77;6.70;;;8.20;81.20;;;;;;5026033;28;20566;-71
2024/02/02 09:34:08;;;;;;;17.43;7.43;;;8.20;81.20;;;;;;5031883;28;20463;-71
2024/02/02 09:36:34;;;;;;;21.10;8.33;;;8.40;80.80;;;;;;5037796;28;20426;-71
2024/02/02 09:39:24;;;;;;;17.63;7.70;;;8.40;80.30;;;;;;5033693;28;20444;-71
2024/02/02 09:42:25;;;;;;;26.67;8.50;;;8.50;80.20;;;;;;5024175;28;20213;-71
2024/02/02 09:45:01;;;;;;;15.03;7.10;;;8.40;80.50;;;;;;5030130;28;20485;-71
2024/02/02 09:47:44;;;;;;;12.77;8.00;;;8.40;80.80;;;;;;5031977;28;20787;-70
2024/02/02 09:50:29;;;;;;;14.67;7.20;;;8.50;80.80;;;;;;5031418;28;20509;-72
2024/02/02 09:53:21;;;;;;;11.63;6.63;;;8.60;80.80;;;;;;5035973;28;20420;-71
2024/02/02 09:56:05;;;;;;;12.23;6.60;;;8.70;81.10;;;;;;5005932;28;20424;-73
2024/02/02 09:58:55;;;;;;;14.13;6.60;;;8.80;80.90;;;;;;5030218;28;21115;-71
2024/02/02 10:01:51;;;;;;;14.13;5.80;;;8.90;79.70;;;;;;5023667;28;20467;-71
2024/02/02 10:04:45;;;;;;;12.20;6.47;;;9.00;79.00;;;;;;5026293;28;20458;-71
2024/02/02 10:07:32;;;;;;;13.00;5.83;;;9.00;78.40;;;;;;5034085;28;20796;-70
2024/02/02 10:10:22;;;;;;;10.43;5.80;;;9.10;78.60;;;;;;5029832;28;20472;-71
2024/02/02 10:12:53;;;;;;;11.80;5.80;;;9.10;77.70;;;;;;5021704;28;20425;-71
2024/02/02 10:15:43;;;;;;;9.70;5.30;;;9.00;78.30;;;;;;5032382;28;20420;-71
2024/02/02 10:18:37;;;;;;;9.63;5.50;;;9.20;78.00;;;;;;5031768;28;20427;-71
2024/02/02 10:21:25;;;;;;;10.40;5.93;;;9.10;77.70;;;;;;5022310;28;20464;-72
2024/02/02 10:24:15;;;;;;;9.83;5.77;;;9.10;78.00;;;;;;5022028;28;20467;-71
2024/02/02 10:27:04;;;;;;;8.30;4.97;;;9.00;77.70;;;;;;5028657;28;20451;-73
2024/02/02 10:29:53;;;;;;;9.70;5.03;;;9.00;77.70;;;;;;5027322;28;20456;-72
2024/02/02 10:32:46;;;;;;;8.40;4.60;;;9.10;77.70;;;;;;5017866;28;20437;-71
2024/02/02 10:35:44;;;;;;;8.27;4.37;;;9.20;76.50;;;;;;5036018;28;20424;-72
2024/02/02 10:38:22;;;;;;;8.37;4.50;;;9.10;76.80;;;;;;5040155;28;20426;-71
2024/02/02 10:40:51;;;;;;;8.90;4.73;;;9.20;76.20;;;;;;5035962;28;20538;-71
2024/02/02 10:43:53;;;;;;;11.67;5.23;;;9.20;75.70;;;;;;5027379;28;20436;-70
2024/02/02 10:46:56;;;;;;;11.17;5.47;;;9.10;76.10;;;;;;5024532;28;20423;-71
2024/02/02 10:49:39;;;;;;;8.50;3.87;;;9.30;76.10;;;;;;5031549;28;20551;-71
2024/02/02 10:52:16;;;;;;;9.13;5.30;;;9.40;75.20;;;;;;5023303;28;20452;-71
2024/02/02 10:54:45;;;;;;;10.07;4.90;;;9.30;75.20;;;;;;5027445;28;20955;-72
2024/02/02 10:57:31;;;;;;;10.07;4.70;;;9.50;75.10;;;;;;5024429;28;20857;-72
2024/02/02 11:00:17;;;;;;;7.70;4.67;;;9.50;74.50;;;;;;5029031;28;20431;-70
2024/02/02 11:02:58;;;;;;;8.10;4.47;;;9.60;74.20;;;;;;5025434;28;20493;-72
2024/02/02 11:05:56;;;;;;;10.60;4.27;;;9.70;73.60;;;;;;5026954;28;20836;-71
2024/02/02 11:08:27;;;;;;;8.30;4.50;;;9.80;73.70;;;;;;5031957;28;20502;-71
2024/02/02 11:11:08;;;;;;;5.77;3.80;;;10.30;72.90;;;;;;5026918;28;20467;-73
2024/02/02 11:13:39;;;;;;;6.00;3.80;;;10.60;70.80;;;;;;5021883;28;20428;-73
2024/02/02 11:16:42;;;;;;;6.10;3.40;;;10.60;70.50;;;;;;5029955;28;20428;-71
2024/02/02 11:19:46;;;;;;;6.90;3.70;;;10.90;69.90;;;;;;5032112;28;20447;-70
2024/02/02 11:22:18;;;;;;;4.97;3.17;;;11.10;68.60;;;;;;4965851;28;20462;-71
2024/02/02 11:25:02;;;;;;;4.20;2.70;;;11.30;67.60;;;;;;4963820;28;20434;-71
2024/02/02 11:27:36;;;;;;;4.70;3.10;;;11.40;67.60;;;;;;4970855;28;20761;-70
2024/02/02 11:30:02;;;;;;;6.10;3.40;;;11.70;67.20;;;;;;4968093;28;20481;-71
2024/02/02 11:32:52;;;;;;;7.03;2.97;;;11.50;66.30;;;;;;4963017;28;20856;-72
2024/02/02 11:35:24;;;;;;;4.67;2.30;;;11.30;66.30;;;;;;4963891;28;20548;-72
2024/02/02 11:38:14;;;;;;;4.50;2.60;;;11.30;66.10;;;;;;4967207;28;20458;-73
2024/02/02 11:40:41;;;;;;;4.20;2.73;;;11.10;66.00;;;;;;4964849;28;20505;-72
2024/02/02 11:43:09;;;;;;;3.80;2.80;;;11.30;66.30;;;;;;4972242;28;21367;-72
2024/02/02 11:45:39;;;;;;;4.30;2.93;;;11.20;65.60;;;;;;4967468;28;20444;-69
2024/02/02 11:48:08;;;;;;;4.70;2.70;;;10.90;65.80;;;;;;4966574;28;20453;-71
2024/02/02 11:50:41;;;;;;;3.73;2.83;;;11.00;65.80;;;;;;4968186;28;21010;-72
2024/02/02 11:53:25;;;;;;;6.87;2.30;;;11.00;65.80;;;;;;4965008;28;20426;-71
2024/02/02 11:56:14;;;;;;;3.87;2.33;;;11.00;65.40;;;;;;4991876;28;20416;-72
2024/02/02 11:58:44;;;;;;;7.30;2.20;;;11.00;65.40;;;;;;5039607;28;20837;-71
2024/02/02 12:01:33;;;;;;;5.00;1.83;;;11.00;65.30;;;;;;5026256;28;20459;-71
2024/02/02 12:03:58;;;;;;;3.70;2.23;;;11.00;65.40;;;;;;5028089;28;20778;-71
2024/02/02 12:06:28;;;;;;;4.50;2.10;;;11.00;65.40;;;;;;5033930;28;20415;-70
2024/02/02 12:09:11;;;;;;;4.77;2.40;;;11.10;65.10;;;;;;5033915;28;20240;-70
2024/02/02 12:11:38;;;;;;;4.00;2.33;;;11.20;65.40;;;;;;5023210;28;20862;-72
2024/02/02 12:14:15;;;;;;;2.30;1.67;;;11.30;64.70;;;;;;5030881;28;20435;-70
2024/02/02 12:16:41;;;;;;;4.20;1.83;;;11.40;64.70;;;;;;5033716;28;20454;-70
2024/02/02 12:19:07;;;;;;;2.40;1.63;;;11.40;65.00;;;;;;5033778;28;20535;-70
2024/02/02 12:21:32;;;;;;;3.67;2.07;;;11.20;64.20;;;;;;5027338;28;20546;-70
2024/02/02 12:23:58;;;;;;;3.50;1.77;;;11.20;63.90;;;;;;5029941;28;20189;-71
2024/02/02 12:26:24;;;;;;;3.70;2.13;;;11.20;64.80;;;;;;5029546;28;20624;-70
2024/02/02 12:28:52;;;;;;;16.53;3.03;;;11.50;64.50;;;;;;5033886;28;20658;-70
2024/02/02 12:31:17;;;;;;;5.17;2.20;;;11.50;64.80;;;;;;5027466;28;20534;-71
2024/02/02 12:33:43;;;;;;;10.60;2.47;;;11.70;64.80;;;;;;5030489;28;20961;-72
2024/02/02 12:36:08;;;;;;;3.73;1.67;;;11.70;64.10;;;;;;5038688;28;20323;-71
2024/02/02 12:38:34;;;;;;;13.33;2.80;;;11.70;63.90;;;;;;5036390;28;20703;-71
2024/02/02 12:41:00;;;;;;;5.40;2.50;;;11.70;64.40;;;;;;5034576;28;20288;-71
2024/02/02 12:43:25;;;;;;;2.83;1.80;;;11.70;64.20;;;;;;5040093;28;20173;-71
2024/02/02 12:45:54;;;;;;;4.00;2.23;;;11.70;63.80;;;;;;5041887;28;20610;-71
2024/02/02 12:48:20;;;;;;;3.00;1.93;;;11.50;64.50;;;;;;5036725;28;20716;-70
2024/02/02 12:50:49;;;;;;;4.23;2.30;;;11.60;64.40;;;;;;5024667;28;20618;-70
2024/02/02 12:53:15;;;;;;;4.87;1.90;;;11.70;64.20;;;;;;5025296;28;20483;-70
2024/02/02 12:55:41;;;;;;;3.70;2.00;;;11.70;63.70;;;;;;5034372;28;20416;-71
2024/02/02 12:58:07;;;;;;;4.17;2.60;;;11.70;63.80;;;;;;5034729;28;20509;-70
2024/02/02 13:00:32;;;;;;;3.33;2.10;;;11.80;63.70;;;;;;5025948;28;20220;-71
2024/02/02 13:02:59;;;;;;;3.43;2.13;;;11.90;63.20;;;;;;5031423;28;20185;-71